createdAt,value
2023-01-19T00:02:35.333Z,7.30
2023-01-19T00:05:37.345Z,8.20
2023-01-19T00:08:41.530Z,8.35
2023-01-19T00:11:45.881Z,8.60
2023-01-19T00:14:49.684Z,8.60
2023-01-19T00:17:51.701Z,8.57
2023-01-19T00:20:54.006Z,8.80
2023-01-19T00:23:56.522Z,8.40
2023-01-19T00:27:00.900Z,9.43
2023-01-19T00:30:05.214Z,8.88
2023-01-19T00:33:07.025Z,8.77
2023-01-19T00:36:11.037Z,9.25
2023-01-19T00:39:12.846Z,9.35
2023-01-19T00:42:14.921Z,9.20
2023-01-19T00:45:20.029Z,9.30
2023-01-19T00:48:21.966Z,8.02
2023-01-19T00:51:23.742Z,9.88
2023-01-19T00:54:27.614Z,9.85
2023-01-19T00:57:29.718Z,9.93
2023-01-19T01:00:35.422Z,9.13
2023-01-19T01:03:37.430Z,9.48
2023-01-19T01:06:39.365Z,9.73
2023-01-19T01:09:43.840Z,9.27
2023-01-19T01:12:54.810Z,9.68
2023-01-19T01:16:01.531Z,9.18
2023-01-19T01:19:03.697Z,8.77
2023-01-19T01:22:06.039Z,10.15
2023-01-19T01:25:08.527Z,9.40
2023-01-19T01:28:10.451Z,9.70
2023-01-19T01:31:16.142Z,9.45
2023-01-19T01:34:18.514Z,9.85
2023-01-19T01:37:20.838Z,11.13
2023-01-19T01:40:23.103Z,10.15
2023-01-19T01:43:43.223Z,10.30
2023-01-19T01:46:46.419Z,11.35
2023-01-19T01:49:54.225Z,11.75
2023-01-19T01:53:06.639Z,11.50
2023-01-19T01:56:15.396Z,11.73
2023-01-19T01:59:22.641Z,11.23
2023-01-19T02:02:33.256Z,11.45
2023-01-19T02:05:37.442Z,11.60
2023-01-19T02:08:44.001Z,11.73
2023-01-19T02:11:46.325Z,12.65
2023-01-19T02:14:48.518Z,13.02
2023-01-19T02:17:51.975Z,11.73
2023-01-19T02:21:09.150Z,11.38
2023-01-19T02:24:14.592Z,12.52
2023-01-19T02:27:20.092Z,12.02
2023-01-19T02:30:23.421Z,11.95
2023-01-19T02:33:25.897Z,12.82
2023-01-19T02:36:34.935Z,13.07
2023-01-19T02:39:45.260Z,12.63
2023-01-19T02:42:49.680Z,12.27
2023-01-19T02:45:54.307Z,13.15
2023-01-19T02:48:59.769Z,14.05
2023-01-19T02:52:02.662Z,13.07
2023-01-19T02:55:16.657Z,13.48
2023-01-19T02:58:28.532Z,13.27
2023-01-19T03:01:44.207Z,12.82
2023-01-19T03:04:59.594Z,14.52
2023-01-19T03:08:10.664Z,13.30
2023-01-19T03:11:16.806Z,15.27
2023-01-19T03:14:26.526Z,14.38
2023-01-19T03:17:32.117Z,13.55
2023-01-19T03:20:36.413Z,15.05
2023-01-19T03:23:43.630Z,12.52
2023-01-19T03:26:53.940Z,13.25
2023-01-19T03:29:59.743Z,13.27
2023-01-19T03:33:07.292Z,13.30
2023-01-19T03:36:15.132Z,13.35
2023-01-19T03:39:22.548Z,13.07
2023-01-19T03:42:28.001Z,15.20
2023-01-19T03:45:32.892Z,14.38
2023-01-19T03:48:34.802Z,14.38
2023-01-19T03:51:39.161Z,13.38
2023-01-19T03:54:43.472Z,13.82
2023-01-19T03:57:49.100Z,14.98
2023-01-19T04:00:50.983Z,14.20
2023-01-19T04:03:55.624Z,13.95
2023-01-19T04:06:57.666Z,14.90
2023-01-19T04:09:59.892Z,15.65
2023-01-19T04:13:06.250Z,14.20
2023-01-19T04:16:09.662Z,14.90
2023-01-19T04:19:11.551Z,13.60
2023-01-19T04:22:15.692Z,14.82
2023-01-19T04:25:17.699Z,14.25
2023-01-19T04:28:21.099Z,13.82
2023-01-19T04:31:22.890Z,14.75
2023-01-19T04:34:25.035Z,14.57
2023-01-19T04:37:27.123Z,14.73
2023-01-19T04:40:29.116Z,14.48
2023-01-19T04:43:34.013Z,13.80
2023-01-19T04:46:38.519Z,14.55
2023-01-19T04:49:40.813Z,13.45
2023-01-19T04:52:43.055Z,15.63
2023-01-19T04:55:44.952Z,15.05
2023-01-19T04:58:48.339Z,15.68
2023-01-19T05:01:50.373Z,14.75
2023-01-19T05:04:53.761Z,15.65
2023-01-19T05:07:55.843Z,16.65
2023-01-19T05:10:57.847Z,16.13
2023-01-19T05:14:01.540Z,16.58
2023-01-19T05:17:03.714Z,16.95
2023-01-19T05:20:08.642Z,17.58
2023-01-19T05:23:11.018Z,18.15
2023-01-19T05:26:14.169Z,19.65
2023-01-19T05:29:18.633Z,19.40
2023-01-19T05:32:20.463Z,18.13
2023-01-19T05:35:35.253Z,17.13
2023-01-19T05:38:37.903Z,16.27
2023-01-19T05:41:40.769Z,15.32
2023-01-19T05:44:44.218Z,13.70
2023-01-19T05:47:48.285Z,13.15
2023-01-19T05:50:52.630Z,11.52
2023-01-19T05:53:54.445Z,11.00
2023-01-19T05:56:57.080Z,10.68
2023-01-19T06:00:03.822Z,11.15
2023-01-19T06:03:05.633Z,10.60
2023-01-19T06:06:08.119Z,10.65
2023-01-19T06:09:10.261Z,11.07
2023-01-19T06:12:12.289Z,11.27
2023-01-19T06:15:16.236Z,12.35
2023-01-19T06:18:18.337Z,11.68
2023-01-19T06:21:23.582Z,11.98
2023-01-19T06:24:25.459Z,11.93
2023-01-19T06:27:27.655Z,12.32
2023-01-19T06:30:31.285Z,12.52
2023-01-19T06:33:36.161Z,12.13
2023-01-19T06:36:37.954Z,12.48
2023-01-19T06:39:39.981Z,13.05
2023-01-19T06:42:41.896Z,12.88
2023-01-19T06:45:48.021Z,12.10
2023-01-19T06:48:50.059Z,11.35
2023-01-19T06:51:52.221Z,11.80
2023-01-19T06:54:54.147Z,12.30
2023-01-19T06:57:58.754Z,11.82
2023-01-19T07:01:03.919Z,12.73
2023-01-19T07:04:05.819Z,12.68
2023-01-19T07:07:07.616Z,12.70
2023-01-19T07:10:10.964Z,14.20
2023-01-19T07:13:12.758Z,12.88
2023-01-19T07:16:16.378Z,12.43
2023-01-19T07:19:27.309Z,12.30
2023-01-19T07:22:29.199Z,12.52
2023-01-19T07:25:31.041Z,12.73
2023-01-19T07:28:32.920Z,13.60
2023-01-19T07:31:36.540Z,12.30
2023-01-19T07:34:39.736Z,13.32
2023-01-19T07:37:41.814Z,12.60
2023-01-19T07:40:44.007Z,12.63
2023-01-19T07:43:45.979Z,12.88
2023-01-19T07:46:49.511Z,12.35
2023-01-19T07:49:51.474Z,11.80
2023-01-19T07:52:53.813Z,12.70
2023-01-19T07:55:56.671Z,13.75
2023-01-19T07:58:59.117Z,16.58
2023-01-19T08:02:02.630Z,14.93
2023-01-19T08:05:04.996Z,15.68
2023-01-19T08:08:06.834Z,15.55
2023-01-19T08:11:08.834Z,17.08
2023-01-19T08:14:11.082Z,16.55
2023-01-19T08:17:15.244Z,15.80
2023-01-19T08:20:17.830Z,14.60
2023-01-19T08:23:19.803Z,13.45
2023-01-19T08:26:27.422Z,12.30
2023-01-19T08:29:31.195Z,14.30
2023-01-19T08:32:35.014Z,13.38
2023-01-19T08:35:38.613Z,11.40
2023-01-19T08:38:40.660Z,11.48
2023-01-19T08:41:44.815Z,9.27
2023-01-19T08:44:57.588Z,9.05
2023-01-19T08:48:02.098Z,9.88
2023-01-19T08:51:04.408Z,10.00
2023-01-19T08:54:06.939Z,8.02
2023-01-19T08:57:08.740Z,9.52
2023-01-19T09:00:12.036Z,8.95
2023-01-19T09:03:15.322Z,7.80
2023-01-19T09:06:20.221Z,7.50
2023-01-19T09:09:24.615Z,7.22
2023-01-19T09:12:28.548Z,7.22
2023-01-19T09:15:30.943Z,7.03
2023-01-19T09:18:37.691Z,8.15
2023-01-19T09:21:39.567Z,7.10
2023-01-19T09:24:42.773Z,6.15
2023-01-19T09:27:44.750Z,6.95
2023-01-19T09:30:48.707Z,7.40
2023-01-19T09:33:52.296Z,6.43
2023-01-19T09:36:54.279Z,7.72
2023-01-19T09:39:59.844Z,7.30
2023-01-19T09:43:12.788Z,7.30
2023-01-19T09:46:19.941Z,7.90
2023-01-19T09:49:31.421Z,8.23
2023-01-19T09:52:37.766Z,8.32
2023-01-19T09:55:43.725Z,8.75
2023-01-19T09:58:46.084Z,9.63
2023-01-19T10:02:04.038Z,10.13
2023-01-19T10:05:25.427Z,9.57
2023-01-19T10:08:36.172Z,9.68
2023-01-19T10:11:52.707Z,9.60
2023-01-19T10:15:03.427Z,10.35
2023-01-19T10:18:13.494Z,11.02
2023-01-19T10:21:20.511Z,10.50
2023-01-19T10:24:29.284Z,9.15
2023-01-19T10:27:32.592Z,9.20
2023-01-19T10:30:35.368Z,10.85
2023-01-19T10:33:38.790Z,9.63
2023-01-19T10:36:42.196Z,10.52
2023-01-19T10:39:45.450Z,10.05
2023-01-19T10:42:47.459Z,10.55
2023-01-19T10:45:50.620Z,10.23
2023-01-19T10:48:54.335Z,9.30
2023-01-19T10:51:59.369Z,9.68
2023-01-19T10:55:03.225Z,9.65
2023-01-19T10:58:06.355Z,9.48
2023-01-19T11:01:43.151Z,10.77
2023-01-19T11:04:45.455Z,10.02
2023-01-19T11:07:51.518Z,9.30
2023-01-19T11:10:59.044Z,10.48
2023-01-19T11:14:09.692Z,8.88
2023-01-19T11:17:19.899Z,10.70
2023-01-19T11:20:24.338Z,10.60
2023-01-19T11:23:30.303Z,10.25
2023-01-19T11:26:35.304Z,9.32
2023-01-19T11:29:37.441Z,9.35
2023-01-19T11:32:39.547Z,9.55
2023-01-19T11:35:44.849Z,8.68
2023-01-19T11:38:51.313Z,8.10
2023-01-19T11:41:56.208Z,9.80
2023-01-19T11:45:06.350Z,9.38
2023-01-19T11:48:18.662Z,9.68
2023-01-19T11:51:23.048Z,11.48
2023-01-19T11:54:31.766Z,9.18
2023-01-19T11:57:34.168Z,9.48
2023-01-19T12:00:41.595Z,10.85
2023-01-19T12:03:47.812Z,10.27
2023-01-19T12:06:54.523Z,10.82
2023-01-19T12:10:07.319Z,8.80
2023-01-19T12:13:28.666Z,8.05
2023-01-19T12:16:34.488Z,8.15
2023-01-19T12:19:42.860Z,7.60
2023-01-19T12:22:50.812Z,7.47
2023-01-19T12:26:09.629Z,5.90
2023-01-19T12:29:14.013Z,9.53
2023-01-19T12:32:20.115Z,8.98
2023-01-19T12:35:58.586Z,10.05
2023-01-19T12:39:03.795Z,9.50
2023-01-19T12:42:15.450Z,8.73
2023-01-19T12:45:21.014Z,10.30
2023-01-19T12:48:28.249Z,12.07
2023-01-19T12:51:30.670Z,11.63
2023-01-19T12:54:33.009Z,9.90
2023-01-19T12:57:46.237Z,11.18
2023-01-19T13:00:52.008Z,11.55
2023-01-19T13:04:06.011Z,10.23
2023-01-19T13:07:09.973Z,10.43
2023-01-19T13:10:48.911Z,10.30
2023-01-19T13:14:26.968Z,11.75
2023-01-19T13:17:33.196Z,9.93
2023-01-19T13:20:46.648Z,10.13
2023-01-19T13:23:54.742Z,9.30
2023-01-19T13:26:58.308Z,10.77
2023-01-19T13:30:03.550Z,9.50
2023-01-19T13:33:17.815Z,8.88
2023-01-19T13:36:27.554Z,9.23
2023-01-19T13:39:34.664Z,10.18
2023-01-19T13:42:39.033Z,9.85
2023-01-19T13:45:41.841Z,8.50
2023-01-19T13:48:57.682Z,8.82
2023-01-19T13:52:07.739Z,9.25
2023-01-19T13:55:14.418Z,9.48
2023-01-19T13:58:23.369Z,10.07
2023-01-19T14:01:28.898Z,9.27
2023-01-19T14:04:34.070Z,7.90
2023-01-19T14:07:36.098Z,8.98
2023-01-19T14:10:40.477Z,8.57
2023-01-19T14:13:46.486Z,8.68
2023-01-19T14:16:48.340Z,9.18
2023-01-19T14:19:53.606Z,8.57
2023-01-19T14:22:56.424Z,8.20
2023-01-19T14:25:58.268Z,7.40
2023-01-19T14:29:07.966Z,8.07
2023-01-19T14:32:15.740Z,8.38
2023-01-19T14:35:25.769Z,8.20
2023-01-19T14:38:27.626Z,7.72
2023-01-19T14:41:37.847Z,7.28
2023-01-19T14:44:42.948Z,8.20
2023-01-19T14:47:47.458Z,8.15
2023-01-19T14:51:03.180Z,7.32
2023-01-19T14:54:05.877Z,8.32
2023-01-19T14:57:12.680Z,8.65
2023-01-19T15:00:17.578Z,7.90
2023-01-19T15:03:19.511Z,8.35
2023-01-19T15:06:24.822Z,7.90
2023-01-19T15:09:27.140Z,8.63
2023-01-19T15:12:29.329Z,7.45
2023-01-19T15:15:33.680Z,7.82
2023-01-19T15:18:35.882Z,7.80
2023-01-19T15:21:39.333Z,7.22
2023-01-19T15:24:41.121Z,7.18
2023-01-19T15:27:43.748Z,7.47
2023-01-19T15:30:45.801Z,7.75
2023-01-19T15:33:49.500Z,8.48
2023-01-19T15:36:53.726Z,9.07
2023-01-19T15:39:55.581Z,7.65
2023-01-19T15:42:57.367Z,7.28
2023-01-19T15:46:01.357Z,8.55
2023-01-19T15:49:03.307Z,7.57
2023-01-19T15:52:06.654Z,8.15
2023-01-19T15:55:10.911Z,7.43
2023-01-19T15:58:13.818Z,7.72
2023-01-19T16:01:17.510Z,6.47
2023-01-19T16:04:19.552Z,6.45
2023-01-19T16:07:37.846Z,7.22
2023-01-19T16:10:41.224Z,6.35
2023-01-19T16:13:45.300Z,7.22
2023-01-19T16:16:47.268Z,7.22
2023-01-19T16:19:51.576Z,6.60
2023-01-19T16:22:56.561Z,6.05
2023-01-19T16:26:02.211Z,6.85
2023-01-19T16:29:06.047Z,6.43
2023-01-19T16:32:07.868Z,6.47
2023-01-19T16:35:09.934Z,6.88
2023-01-19T16:38:13.357Z,6.70
2023-01-19T16:41:16.804Z,6.40
2023-01-19T16:44:20.106Z,6.47
2023-01-19T16:47:22.288Z,8.40
2023-01-19T16:50:24.318Z,7.88
2023-01-19T16:53:29.762Z,7.95
2023-01-19T16:56:31.842Z,8.65
2023-01-19T16:59:33.906Z,7.40
2023-01-19T17:02:35.903Z,9.30
2023-01-19T17:05:38.406Z,9.05
2023-01-19T17:08:42.048Z,7.78
2023-01-19T17:11:47.737Z,7.53
2023-01-19T17:14:50.652Z,6.95
2023-01-19T17:17:53.939Z,6.93
2023-01-19T17:21:01.654Z,6.72
2023-01-19T17:24:08.451Z,6.90
2023-01-19T17:27:12.256Z,5.82
2023-01-19T17:30:17.113Z,7.13
2023-01-19T17:33:22.476Z,7.57
2023-01-19T17:36:26.531Z,7.28
2023-01-19T17:39:30.467Z,7.28
2023-01-19T17:42:33.224Z,6.88
2023-01-19T17:45:37.186Z,6.45
2023-01-19T17:48:39.838Z,6.75
2023-01-19T17:51:42.432Z,7.40
2023-01-19T17:54:46.565Z,5.95
2023-01-19T17:57:49.550Z,7.53
2023-01-19T18:00:52.818Z,11.02
2023-01-19T18:03:59.228Z,14.75
2023-01-19T18:07:02.579Z,13.90
2023-01-19T18:10:07.770Z,17.25
2023-01-19T18:13:11.906Z,16.58
2023-01-19T18:16:17.061Z,19.55
2023-01-19T18:19:21.050Z,17.08
2023-01-19T18:22:24.111Z,13.65
2023-01-19T18:25:29.378Z,8.82
2023-01-19T18:28:34.122Z,8.77
2023-01-19T18:31:39.944Z,8.80
2023-01-19T18:34:42.814Z,8.65
2023-01-19T18:37:45.854Z,8.40
2023-01-19T18:41:01.096Z,9.65
2023-01-19T18:44:04.414Z,10.25
2023-01-19T18:47:07.514Z,9.50
2023-01-19T18:50:14.237Z,9.80
2023-01-19T18:53:17.686Z,9.18
2023-01-19T18:56:24.425Z,9.40
2023-01-19T18:59:27.864Z,8.93
2023-01-19T19:02:31.292Z,10.05
2023-01-19T19:05:35.898Z,9.02
2023-01-19T19:08:39.072Z,9.68
2023-01-19T19:11:47.532Z,9.90
2023-01-19T19:14:50.996Z,9.95
2023-01-19T19:17:54.904Z,9.48
2023-01-19T19:20:57.248Z,10.10
2023-01-19T19:24:01.918Z,9.68
2023-01-19T19:27:08.095Z,9.00
2023-01-19T19:30:18.209Z,9.15
2023-01-19T19:33:21.989Z,14.43
2023-01-19T19:36:27.163Z,14.77
2023-01-19T19:39:30.201Z,14.02
2023-01-19T19:42:37.167Z,12.27
2023-01-19T19:45:46.186Z,12.88
2023-01-19T19:51:55.631Z,17.15
2023-01-19T19:54:58.837Z,18.30
2023-01-19T19:58:04.791Z,16.08
2023-01-19T20:01:10.036Z,13.32
2023-01-19T20:04:16.716Z,14.20
2023-01-19T20:07:19.592Z,16.70
2023-01-19T20:10:22.625Z,15.90
2023-01-19T20:13:32.076Z,15.02
2023-01-19T20:16:36.340Z,13.65
2023-01-19T20:19:39.930Z,22.13
2023-01-19T20:22:43.394Z,25.70
2023-01-19T20:25:46.786Z,33.70
2023-01-19T20:28:51.792Z,31.88
2023-01-19T20:31:56.573Z,25.58
2023-01-19T20:34:59.279Z,19.75
2023-01-19T20:38:02.681Z,12.68
2023-01-19T20:41:07.022Z,11.02
2023-01-19T20:44:12.571Z,10.30
2023-01-19T20:47:17.420Z,11.75
2023-01-19T20:50:21.878Z,10.48
2023-01-19T20:53:25.741Z,8.38
2023-01-19T20:56:28.731Z,7.35
2023-01-19T20:59:33.325Z,7.95
2023-01-19T21:02:35.810Z,8.80
2023-01-19T21:05:38.073Z,10.18
2023-01-19T21:08:42.197Z,10.73
2023-01-19T21:11:44.881Z,9.75
2023-01-19T21:14:50.900Z,9.40
2023-01-19T21:17:53.856Z,7.28
2023-01-19T21:21:00.393Z,7.07
2023-01-19T21:24:04.022Z,7.95
2023-01-19T21:27:06.017Z,7.93
2023-01-19T21:30:11.112Z,8.13
2023-01-19T21:33:14.095Z,8.35
2023-01-19T21:36:16.353Z,8.95
2023-01-19T21:39:18.729Z,8.38
2023-01-19T21:42:20.732Z,9.65
2023-01-19T21:45:24.129Z,10.48
2023-01-19T21:48:25.957Z,9.45
2023-01-19T21:51:28.147Z,8.88
2023-01-19T21:54:30.025Z,8.93
2023-01-19T21:57:32.068Z,8.23
2023-01-19T22:00:35.464Z,8.63
2023-01-19T22:03:38.527Z,8.38
2023-01-19T22:06:40.556Z,8.35
2023-01-19T22:09:42.581Z,8.25
2023-01-19T22:12:44.388Z,9.18
2023-01-19T22:15:59.307Z,9.85
2023-01-19T22:19:03.138Z,7.93
2023-01-19T22:22:04.920Z,8.85
2023-01-19T22:25:07.350Z,8.25
2023-01-19T22:28:09.184Z,10.10
2023-01-19T22:31:14.677Z,11.57
2023-01-19T22:34:17.436Z,9.32
2023-01-19T22:37:19.213Z,8.80
2023-01-19T22:40:21.023Z,8.90
2023-01-19T22:43:25.230Z,7.95
2023-01-19T22:46:30.458Z,9.18
2023-01-19T22:49:32.353Z,7.97
2023-01-19T22:52:34.420Z,10.18
2023-01-19T22:55:37.174Z,9.88
2023-01-19T22:58:39.445Z,8.85
2023-01-19T23:01:43.939Z,8.45
2023-01-19T23:04:45.845Z,8.88
2023-01-19T23:07:48.106Z,8.85
2023-01-19T23:10:52.480Z,8.88
2023-01-19T23:13:55.461Z,9.57
2023-01-19T23:16:58.663Z,9.30
2023-01-19T23:20:02.992Z,8.32
2023-01-19T23:23:04.865Z,8.90
2023-01-19T23:26:08.627Z,8.45
2023-01-19T23:29:12.796Z,8.65
2023-01-19T23:32:16.245Z,8.30
2023-01-19T23:35:19.474Z,7.93
2023-01-19T23:38:22.570Z,7.03
2023-01-19T23:41:26.405Z,6.38
2023-01-19T23:44:30.987Z,6.57
2023-01-19T23:47:36.306Z,6.30
2023-01-19T23:50:39.711Z,5.80
2023-01-19T23:53:41.713Z,6.40
2023-01-19T23:56:43.930Z,6.95
2023-01-19T23:59:45.722Z,6.53
